sensor_id;sensor_type;location;lat;lon;timestamp;pressure;altitude;pressure_sealevel;temperature;humidity
14295;BME280;7231;59.370;18.016;2023-05-08T00:00:39;102790.16;;;5.64;56.79
14295;BME280;7231;59.370;18.016;2023-05-08T00:03:09;102774.31;;;5.61;56.65
14295;BME280;7231;59.370;18.016;2023-05-08T00:05:37;102782.22;;;5.63;57.08
14295;BME280;7231;59.370;18.016;2023-05-08T00:08:05;102780.41;;;5.62;56.97
14295;BME280;7231;59.370;18.016;2023-05-08T00:10:33;102776.53;;;5.57;56.69
14295;BME280;7231;59.370;18.016;2023-05-08T00:13:01;102786.41;;;5.61;57.32
14295;BME280;7231;59.370;18.016;2023-05-08T00:15:29;102780.97;;;5.58;57.41
14295;BME280;7231;59.370;18.016;2023-05-08T00:17:57;102697.13;;;5.06;57.54
14295;BME280;7231;59.370;18.016;2023-05-08T00:20:26;102786.03;;;5.56;57.36
14295;BME280;7231;59.370;18.016;2023-05-08T00:22:54;102778.91;;;5.53;57.05
14295;BME280;7231;59.370;18.016;2023-05-08T00:25:23;102782.28;;;5.52;57.63
14295;BME280;7231;59.370;18.016;2023-05-08T00:27:51;102790.09;;;5.52;57.71
14295;BME280;7231;59.370;18.016;2023-05-08T00:30:19;102789.19;;;5.52;57.55
14295;BME280;7231;59.370;18.016;2023-05-08T00:32:48;102780.47;;;5.51;57.38
14295;BME280;7231;59.370;18.016;2023-05-08T00:35:15;102771.94;;;5.42;57.36
14295;BME280;7231;59.370;18.016;2023-05-08T00:37:45;102790.75;;;5.50;57.64
14295;BME280;7231;59.370;18.016;2023-05-08T00:40:13;102789.84;;;5.49;57.48
14295;BME280;7231;59.370;18.016;2023-05-08T00:42:41;102791.44;;;5.47;57.23
14295;BME280;7231;59.370;18.016;2023-05-08T00:45:10;102774.28;;;5.39;57.48
14295;BME280;7231;59.370;18.016;2023-05-08T00:47:39;102787.13;;;5.48;57.22
14295;BME280;7231;59.370;18.016;2023-05-08T00:50:08;102788.81;;;5.47;57.59
14295;BME280;7231;59.370;18.016;2023-05-08T00:52:38;102782.72;;;5.47;57.53
14295;BME280;7231;59.370;18.016;2023-05-08T00:55:08;102787.78;;;5.45;57.53
14295;BME280;7231;59.370;18.016;2023-05-08T00:57:37;102786.75;;;5.43;57.33
14295;BME280;7231;59.370;18.016;2023-05-08T01:00:06;102790.28;;;5.44;57.63
14295;BME280;7231;59.370;18.016;2023-05-08T01:02:34;102796.38;;;5.44;57.70
14295;BME280;7231;59.370;18.016;2023-05-08T01:05:03;102799.78;;;5.43;57.96
14295;BME280;7231;59.370;18.016;2023-05-08T01:07:33;102799.09;;;5.46;58.11
14295;BME280;7231;59.370;18.016;2023-05-08T01:10:01;102803.41;;;5.45;57.82
14295;BME280;7231;59.370;18.016;2023-05-08T01:12:44;102788.47;;;5.43;58.16
14295;BME280;7231;59.370;18.016;2023-05-08T01:15:15;102796.63;;;5.47;57.97
14295;BME280;7231;59.370;18.016;2023-05-08T01:17:52;102800.00;;;5.46;57.80
14295;BME280;7231;59.370;18.016;2023-05-08T01:20:34;102783.66;;;5.37;58.15
14295;BME280;7231;59.370;18.016;2023-05-08T01:23:38;102797.41;;;5.46;58.17
14295;BME280;7231;59.370;18.016;2023-05-08T01:26:28;102780.94;;;5.36;58.27
14295;BME280;7231;59.370;18.016;2023-05-08T01:29:32;102805.22;;;5.46;58.44
14295;BME280;7231;59.370;18.016;2023-05-08T01:32:16;102796.91;;;5.40;58.19
14295;BME280;7231;59.370;18.016;2023-05-08T01:34:57;102798.19;;;5.45;58.81
14295;BME280;7231;59.370;18.016;2023-05-08T01:37:34;102808.59;;;5.45;58.45
14295;BME280;7231;59.370;18.016;2023-05-08T01:40:10;102819.81;;;5.44;58.45
14295;BME280;7231;59.370;18.016;2023-05-08T01:42:47;102811.88;;;5.43;58.97
14295;BME280;7231;59.370;18.016;2023-05-08T01:45:19;102786.69;;;5.32;58.91
14295;BME280;7231;59.370;18.016;2023-05-08T01:47:56;102807.44;;;5.42;59.14
14295;BME280;7231;59.370;18.016;2023-05-08T01:50:30;102780.75;;;5.22;58.88
14295;BME280;7231;59.370;18.016;2023-05-08T01:53:06;102809.94;;;5.40;59.02
14295;BME280;7231;59.370;18.016;2023-05-08T01:55:38;102801.63;;;5.34;58.77
14295;BME280;7231;59.370;18.016;2023-05-08T01:58:09;102812.41;;;5.39;59.01
14295;BME280;7231;59.370;18.016;2023-05-08T02:00:39;102813.31;;;5.39;59.13
14295;BME280;7231;59.370;18.016;2023-05-08T02:03:10;102818.41;;;5.38;59.09
14295;BME280;7231;59.370;18.016;2023-05-08T02:05:41;102818.28;;;5.36;59.19
14295;BME280;7231;59.370;18.016;2023-05-08T02:08:11;102818.16;;;5.35;59.50
14295;BME280;7231;59.370;18.016;2023-05-08T02:10:40;102818.03;;;5.33;59.12
14295;BME280;7231;59.370;18.016;2023-05-08T02:13:09;102806.09;;;5.25;59.31
14295;BME280;7231;59.370;18.016;2023-05-08T02:15:38;102764.47;;;5.03;59.25
14295;BME280;7231;59.370;18.016;2023-05-08T02:18:11;102819.47;;;5.30;59.51
14295;BME280;7231;59.370;18.016;2023-05-08T02:20:40;102811.53;;;5.28;59.12
14295;BME280;7231;59.370;18.016;2023-05-08T02:23:10;102800.44;;;5.19;59.62
14295;BME280;7231;59.370;18.016;2023-05-08T02:25:40;102808.56;;;5.23;59.76
14295;BME280;7231;59.370;18.016;2023-05-08T02:28:09;102762.81;;;4.94;59.74
14295;BME280;7231;59.370;18.016;2023-05-08T02:30:38;102810.06;;;5.20;59.65
14295;BME280;7231;59.370;18.016;2023-05-08T02:33:07;102802.53;;;5.13;59.60
14295;BME280;7231;59.370;18.016;2023-05-08T02:35:38;102818.50;;;5.17;59.86
14295;BME280;7231;59.370;18.016;2023-05-08T02:38:08;102813.19;;;5.16;59.87
14295;BME280;7231;59.370;18.016;2023-05-08T02:40:41;102814.88;;;5.15;60.31
14295;BME280;7231;59.370;18.016;2023-05-08T02:43:11;102816.56;;;5.15;60.34
14295;BME280;7231;59.370;18.016;2023-05-08T02:45:42;102808.28;;;5.09;60.38
14295;BME280;7231;59.370;18.016;2023-05-08T02:48:16;102812.94;;;5.13;60.50
14295;BME280;7231;59.370;18.016;2023-05-08T02:50:54;102819.72;;;5.11;60.49
14295;BME280;7231;59.370;18.016;2023-05-08T02:53:30;102813.72;;;5.12;60.14
14295;BME280;7231;59.370;18.016;2023-05-08T02:56:03;102809.19;;;5.09;60.48
14295;BME280;7231;59.370;18.016;2023-05-08T02:58:37;102791.94;;;5.00;60.29
14295;BME280;7231;59.370;18.016;2023-05-08T03:01:16;102808.28;;;5.09;60.65
14295;BME280;7231;59.370;18.016;2023-05-08T03:03:54;102793.75;;;5.01;60.40
14295;BME280;7231;59.370;18.016;2023-05-08T03:06:32;102797.13;;;5.00;60.53
14295;BME280;7231;59.370;18.016;2023-05-08T03:09:02;102811.53;;;5.06;60.60
14295;BME280;7231;59.370;18.016;2023-05-08T03:11:37;102814.13;;;5.06;60.47
14295;BME280;7231;59.370;18.016;2023-05-08T03:14:10;102818.56;;;5.07;60.58
14295;BME280;7231;59.370;18.016;2023-05-08T03:16:41;102679.88;;;4.33;60.69
14295;BME280;7231;59.370;18.016;2023-05-08T03:19:18;102737.84;;;4.64;60.76
14295;BME280;7231;59.370;18.016;2023-05-08T03:21:50;102805.19;;;5.03;60.74
14295;BME280;7231;59.370;18.016;2023-05-08T03:24:19;102819.34;;;5.06;60.78
14295;BME280;7231;59.370;18.016;2023-05-08T03:26:49;102808.56;;;5.02;60.79
14295;BME280;7231;59.370;18.016;2023-05-08T03:29:18;102818.56;;;5.07;61.10
14295;BME280;7231;59.370;18.016;2023-05-08T03:31:47;102794.53;;;5.00;61.26
14295;BME280;7231;59.370;18.016;2023-05-08T03:34:18;102810.88;;;5.09;61.36
14295;BME280;7231;59.370;18.016;2023-05-08T03:36:47;102819.72;;;5.11;61.31
14295;BME280;7231;59.370;18.016;2023-05-08T03:39:17;102825.16;;;5.14;61.08
14295;BME280;7231;59.370;18.016;2023-05-08T03:41:45;102822.69;;;5.15;61.13
14295;BME280;7231;59.370;18.016;2023-05-08T03:44:14;102820.22;;;5.17;61.09
14295;BME280;7231;59.370;18.016;2023-05-08T03:46:42;102816.81;;;5.18;61.43
14295;BME280;7231;59.370;18.016;2023-05-08T03:49:13;102805.03;;;5.11;61.13
14295;BME280;7231;59.370;18.016;2023-05-08T03:51:42;102815.34;;;5.21;61.37
14295;BME280;7231;59.370;18.016;2023-05-08T03:54:09;102808.56;;;5.23;61.53
14295;BME280;7231;59.370;18.016;2023-05-08T03:56:39;102802.34;;;5.21;62.11
14295;BME280;7231;59.370;18.016;2023-05-08T03:59:13;102803.88;;;5.30;62.05
14295;BME280;7231;59.370;18.016;2023-05-08T04:01:48;102813.06;;;5.36;61.99
14295;BME280;7231;59.370;18.016;2023-05-08T04:04:37;102814.22;;;5.40;62.12
14295;BME280;7231;59.370;18.016;2023-05-08T04:07:11;102813.72;;;5.34;61.77
14295;BME280;7231;59.370;18.016;2023-05-08T04:09:43;102813.03;;;5.46;62.06
14295;BME280;7231;59.370;18.016;2023-05-08T04:12:21;102799.09;;;5.46;61.65
14295;BME280;7231;59.370;18.016;2023-05-08T04:14:55;102811.94;;;5.54;61.64
14295;BME280;7231;59.370;18.016;2023-05-08T04:17:33;102810.63;;;5.60;61.99
14295;BME280;7231;59.370;18.016;2023-05-08T04:20:03;102810.06;;;5.64;62.02
14295;BME280;7231;59.370;18.016;2023-05-08T04:22:34;102809.53;;;5.68;62.57
14295;BME280;7231;59.370;18.016;2023-05-08T04:25:07;102775.81;;;5.47;62.42
14295;BME280;7231;59.370;18.016;2023-05-08T04:27:39;102792.88;;;5.66;62.59
14295;BME280;7231;59.370;18.016;2023-05-08T04:30:09;102813.09;;;5.80;62.31
14295;BME280;7231;59.370;18.016;2023-05-08T04:32:38;102823.88;;;5.84;62.82
14295;BME280;7231;59.370;18.016;2023-05-08T04:35:10;102804.97;;;5.87;63.37
14295;BME280;7231;59.370;18.016;2023-05-08T04:37:40;102801.06;;;5.92;62.79
14295;BME280;7231;59.370;18.016;2023-05-08T04:40:09;102792.22;;;5.90;62.97
14295;BME280;7231;59.370;18.016;2023-05-08T04:42:39;102808.81;;;6.02;62.82
14295;BME280;7231;59.370;18.016;2023-05-08T04:45:09;102815.28;;;6.07;62.47
14295;BME280;7231;59.370;18.016;2023-05-08T04:47:37;102802.25;;;6.07;62.63
14295;BME280;7231;59.370;18.016;2023-05-08T04:50:06;102814.53;;;6.20;62.75
14295;BME280;7231;59.370;18.016;2023-05-08T04:52:34;102816.69;;;6.26;63.00
14295;BME280;7231;59.370;18.016;2023-05-08T04:55:02;102744.81;;;5.94;62.64
14295;BME280;7231;59.370;18.016;2023-05-08T04:57:30;102802.22;;;6.29;62.34
14295;BME280;7231;59.370;18.016;2023-05-08T04:59:59;102817.44;;;6.46;62.20
14295;BME280;7231;59.370;18.016;2023-05-08T05:02:27;102823.13;;;6.53;61.95
14295;BME280;7231;59.370;18.016;2023-05-08T05:04:55;102820.19;;;6.60;61.98
14295;BME280;7231;59.370;18.016;2023-05-08T05:07:26;102822.47;;;6.67;61.25
14295;BME280;7231;59.370;18.016;2023-05-08T05:09:54;102819.41;;;6.72;61.44
14295;BME280;7231;59.370;18.016;2023-05-08T05:12:23;102822.59;;;6.80;60.92
14295;BME280;7231;59.370;18.016;2023-05-08T05:14:50;102802.28;;;6.76;60.87
14295;BME280;7231;59.370;18.016;2023-05-08T05:17:20;102819.97;;;6.92;60.22
14295;BME280;7231;59.370;18.016;2023-05-08T05:19:48;102817.84;;;6.98;60.75
14295;BME280;7231;59.370;18.016;2023-05-08T05:22:18;102822.81;;;7.06;60.32
14295;BME280;7231;59.370;18.016;2023-05-08T05:24:46;102816.25;;;7.11;59.42
14295;BME280;7231;59.370;18.016;2023-05-08T05:27:14;102821.22;;;7.20;59.69
14295;BME280;7231;59.370;18.016;2023-05-08T05:29:46;102798.44;;;7.18;59.61
14295;BME280;7231;59.370;18.016;2023-05-08T05:32:14;102790.81;;;7.21;59.49
14295;BME280;7231;59.370;18.016;2023-05-08T05:34:43;102796.81;;;7.31;59.31
14295;BME280;7231;59.370;18.016;2023-05-08T05:37:11;102820.41;;;7.44;58.75
14295;BME280;7231;59.370;18.016;2023-05-08T05:39:53;102823.66;;;7.54;59.03
14295;BME280;7231;59.370;18.016;2023-05-08T05:42:21;102816.50;;;7.63;58.71
14295;BME280;7231;59.370;18.016;2023-05-08T05:44:49;102793.34;;;7.56;58.04
14295;BME280;7231;59.370;18.016;2023-05-08T05:47:17;102799.56;;;7.69;58.17
14295;BME280;7231;59.370;18.016;2023-05-08T05:49:46;102820.47;;;7.82;57.59
14295;BME280;7231;59.370;18.016;2023-05-08T05:52:14;102809.69;;;7.90;58.00
14295;BME280;7231;59.370;18.016;2023-05-08T05:54:42;102815.91;;;7.92;57.54
14295;BME280;7231;59.370;18.016;2023-05-08T05:57:12;102813.13;;;8.02;57.36
14295;BME280;7231;59.370;18.016;2023-05-08T05:59:40;102812.88;;;8.10;57.34
14295;BME280;7231;59.370;18.016;2023-05-08T06:02:09;102813.41;;;8.18;57.30
14295;BME280;7231;59.370;18.016;2023-05-08T06:04:40;102794.91;;;8.15;56.54
14295;BME280;7231;59.370;18.016;2023-05-08T06:07:09;102815.16;;;8.31;57.03
14295;BME280;7231;59.370;18.016;2023-05-08T06:09:37;102806.16;;;8.39;56.62
14295;BME280;7231;59.370;18.016;2023-05-08T06:12:05;102803.75;;;8.42;56.52
14295;BME280;7231;59.370;18.016;2023-05-08T06:14:33;102806.00;;;8.49;56.30
14295;BME280;7231;59.370;18.016;2023-05-08T06:17:01;102807.41;;;8.57;55.84
14295;BME280;7231;59.370;18.016;2023-05-08T06:19:29;102799.97;;;8.63;55.33
14295;BME280;7231;59.370;18.016;2023-05-08T06:21:57;102803.22;;;8.72;55.34
14295;BME280;7231;59.370;18.016;2023-05-08T06:24:26;102801.59;;;8.74;54.79
14295;BME280;7231;59.370;18.016;2023-05-08T06:26:54;102764.28;;;8.64;54.71
14295;BME280;7231;59.370;18.016;2023-05-08T06:29:22;102784.91;;;8.86;54.41
14295;BME280;7231;59.370;18.016;2023-05-08T06:31:50;102801.72;;;9.02;54.03
14295;BME280;7231;59.370;18.016;2023-05-08T06:34:18;102804.03;;;9.11;54.24
14295;BME280;7231;59.370;18.016;2023-05-08T06:36:46;102638.03;;;8.27;53.49
14295;BME280;7231;59.370;18.016;2023-05-08T06:39:14;102795.25;;;9.24;53.31
14295;BME280;7231;59.370;18.016;2023-05-08T06:41:46;102795.84;;;9.33;53.09
14295;BME280;7231;59.370;18.016;2023-05-08T06:44:14;102804.41;;;9.43;52.87
14295;BME280;7231;59.370;18.016;2023-05-08T06:46:41;102806.78;;;9.54;53.01
14295;BME280;7231;59.370;18.016;2023-05-08T06:49:10;102798.69;;;9.64;52.72
14295;BME280;7231;59.370;18.016;2023-05-08T06:51:38;102783.19;;;9.67;52.72
14295;BME280;7231;59.370;18.016;2023-05-08T06:54:05;102629.03;;;8.89;52.33
14295;BME280;7231;59.370;18.016;2023-05-08T06:56:34;102799.72;;;9.94;52.02
14295;BME280;7231;59.370;18.016;2023-05-08T06:59:04;102797.75;;;10.04;51.83
14295;BME280;7231;59.370;18.016;2023-05-08T07:01:34;102796.09;;;10.20;51.13
14295;BME280;7231;59.370;18.016;2023-05-08T07:04:04;102809.31;;;10.36;51.14
14295;BME280;7231;59.370;18.016;2023-05-08T07:06:32;102791.22;;;10.55;50.76
14295;BME280;7231;59.370;18.016;2023-05-08T07:09:00;102786.06;;;10.71;50.06
14295;BME280;7231;59.370;18.016;2023-05-08T07:11:28;102786.75;;;10.84;49.80
14295;BME280;7231;59.370;18.016;2023-05-08T07:13:56;102773.41;;;11.10;50.03
14295;BME280;7231;59.370;18.016;2023-05-08T07:16:25;102776.47;;;11.49;50.30
14295;BME280;7231;59.370;18.016;2023-05-08T07:18:53;102758.88;;;11.79;50.85
14295;BME280;7231;59.370;18.016;2023-05-08T07:21:21;102773.63;;;12.59;51.11
14295;BME280;7231;59.370;18.016;2023-05-08T07:23:49;102763.69;;;13.25;49.44
14295;BME280;7231;59.370;18.016;2023-05-08T07:26:19;102761.19;;;13.65;47.91
14295;BME280;7231;59.370;18.016;2023-05-08T07:28:48;102762.03;;;13.83;46.52
14295;BME280;7231;59.370;18.016;2023-05-08T07:31:16;102742.88;;;13.68;44.86
14295;BME280;7231;59.370;18.016;2023-05-08T07:33:45;102748.34;;;14.11;45.03
14295;BME280;7231;59.370;18.016;2023-05-08T07:36:13;102763.34;;;14.73;44.75
14295;BME280;7231;59.370;18.016;2023-05-08T07:38:41;102757.38;;;15.20;43.25
14295;BME280;7231;59.370;18.016;2023-05-08T07:41:09;102755.31;;;15.13;41.53
14295;BME280;7231;59.370;18.016;2023-05-08T07:43:37;102757.41;;;15.00;42.19
14295;BME280;7231;59.370;18.016;2023-05-08T07:46:05;102750.09;;;15.37;42.56
14295;BME280;7231;59.370;18.016;2023-05-08T07:48:33;102748.56;;;16.14;42.39
14295;BME280;7231;59.370;18.016;2023-05-08T07:51:03;102749.84;;;16.76;40.95
14295;BME280;7231;59.370;18.016;2023-05-08T07:53:31;102726.06;;;16.52;39.26
14295;BME280;7231;59.370;18.016;2023-05-08T07:55:59;102735.09;;;16.59;39.71
14295;BME280;7231;59.370;18.016;2023-05-08T07:58:27;102737.09;;;16.91;39.86
14295;BME280;7231;59.370;18.016;2023-05-08T08:00:55;102740.81;;;17.53;39.62
14295;BME280;7231;59.370;18.016;2023-05-08T08:03:23;102737.97;;;17.75;38.10
14295;BME280;7231;59.370;18.016;2023-05-08T08:05:51;102717.56;;;17.44;37.61
14295;BME280;7231;59.370;18.016;2023-05-08T08:08:20;102720.75;;;17.63;38.31
14295;BME280;7231;59.370;18.016;2023-05-08T08:10:48;102724.63;;;18.38;37.93
14295;BME280;7231;59.370;18.016;2023-05-08T08:13:16;102726.84;;;18.91;37.08
14295;BME280;7231;59.370;18.016;2023-05-08T08:15:44;102714.28;;;19.23;36.46
14295;BME280;7231;59.370;18.016;2023-05-08T08:18:12;102714.25;;;19.60;35.39
14295;BME280;7231;59.370;18.016;2023-05-08T08:20:40;102718.31;;;19.44;35.33
14295;BME280;7231;59.370;18.016;2023-05-08T08:23:08;102712.88;;;19.38;35.13
14295;BME280;7231;59.370;18.016;2023-05-08T08:25:38;102707.38;;;19.31;35.04
14295;BME280;7231;59.370;18.016;2023-05-08T08:28:05;102650.28;;;19.15;34.57
14295;BME280;7231;59.370;18.016;2023-05-08T08:30:33;102692.47;;;19.80;34.47
14295;BME280;7231;59.370;18.016;2023-05-08T08:33:01;102676.22;;;20.13;34.34
14295;BME280;7231;59.370;18.016;2023-05-08T08:35:31;102703.78;;;20.64;33.61
14295;BME280;7231;59.370;18.016;2023-05-08T08:37:59;102700.56;;;20.87;33.21
14295;BME280;7231;59.370;18.016;2023-05-08T08:40:28;102697.06;;;20.92;32.45
14295;BME280;7231;59.370;18.016;2023-05-08T08:42:58;102661.44;;;20.31;31.98
14295;BME280;7231;59.370;18.016;2023-05-08T08:45:25;102692.25;;;20.16;32.50
14295;BME280;7231;59.370;18.016;2023-05-08T08:47:54;102694.25;;;19.81;31.70
14295;BME280;7231;59.370;18.016;2023-05-08T08:50:24;102693.97;;;19.67;32.50
14295;BME280;7231;59.370;18.016;2023-05-08T08:52:59;102699.63;;;19.84;32.17
14295;BME280;7231;59.370;18.016;2023-05-08T08:55:28;102684.78;;;19.12;31.68
14295;BME280;7231;59.370;18.016;2023-05-08T08:58:06;102690.72;;;18.63;32.27
14295;BME280;7231;59.370;18.016;2023-05-08T09:00:40;102690.00;;;18.35;32.93
14295;BME280;7231;59.370;18.016;2023-05-08T09:03:08;102683.69;;;17.96;32.58
14295;BME280;7231;59.370;18.016;2023-05-08T09:05:36;102684.38;;;17.89;33.35
14295;BME280;7231;59.370;18.016;2023-05-08T09:08:05;102681.47;;;17.79;33.33
14295;BME280;7231;59.370;18.016;2023-05-08T09:10:34;102421.50;;;16.52;33.38
14295;BME280;7231;59.370;18.016;2023-05-08T09:13:04;102674.81;;;17.95;33.61
14295;BME280;7231;59.370;18.016;2023-05-08T09:15:32;102689.16;;;18.36;33.52
14295;BME280;7231;59.370;18.016;2023-05-08T09:18:00;102684.84;;;18.41;33.25
14295;BME280;7231;59.370;18.016;2023-05-08T09:20:29;102692.13;;;18.14;33.06
14295;BME280;7231;59.370;18.016;2023-05-08T09:22:59;102684.97;;;17.78;33.33
14295;BME280;7231;59.370;18.016;2023-05-08T09:25:40;102678.34;;;17.64;33.95
14295;BME280;7231;59.370;18.016;2023-05-08T09:28:16;102676.13;;;18.11;34.47
14295;BME280;7231;59.370;18.016;2023-05-08T09:30:48;102668.31;;;18.89;34.05
14295;BME280;7231;59.370;18.016;2023-05-08T09:33:17;102676.03;;;19.57;33.48
14295;BME280;7231;59.370;18.016;2023-05-08T09:35:45;102608.72;;;19.62;33.08
14295;BME280;7231;59.370;18.016;2023-05-08T09:38:34;102661.44;;;19.82;32.31
14295;BME280;7231;59.370;18.016;2023-05-08T09:41:07;102657.72;;;19.73;32.42
14295;BME280;7231;59.370;18.016;2023-05-08T09:43:37;102656.44;;;20.00;32.02
14295;BME280;7231;59.370;18.016;2023-05-08T09:46:22;102652.53;;;20.29;32.04
14295;BME280;7231;59.370;18.016;2023-05-08T09:48:51;102643.47;;;20.71;31.80
14295;BME280;7231;59.370;18.016;2023-05-08T09:51:19;102643.59;;;20.83;31.10
14295;BME280;7231;59.370;18.016;2023-05-08T09:53:49;102645.22;;;20.69;31.58
14295;BME280;7231;59.370;18.016;2023-05-08T09:56:32;102640.44;;;21.12;31.36
14295;BME280;7231;59.370;18.016;2023-05-08T09:59:03;102652.22;;;20.62;30.86
14295;BME280;7231;59.370;18.016;2023-05-08T10:01:34;102590.06;;;19.61;31.92
14295;BME280;7231;59.370;18.016;2023-05-08T10:04:02;102646.56;;;19.49;31.93
14295;BME280;7231;59.370;18.016;2023-05-08T10:06:31;102636.34;;;19.69;32.72
14295;BME280;7231;59.370;18.016;2023-05-08T10:09:07;102650.53;;;20.16;31.81
14295;BME280;7231;59.370;18.016;2023-05-08T10:11:35;102637.69;;;20.44;31.96
14295;BME280;7231;59.370;18.016;2023-05-08T10:14:05;102641.94;;;20.91;31.44
14295;BME280;7231;59.370;18.016;2023-05-08T10:16:38;102639.09;;;20.76;31.15
14295;BME280;7231;59.370;18.016;2023-05-08T10:19:12;102635.59;;;20.82;31.21
14295;BME280;7231;59.370;18.016;2023-05-08T10:21:41;102637.63;;;21.01;30.37
14295;BME280;7231;59.370;18.016;2023-05-08T10:24:15;102645.22;;;20.70;30.40
14295;BME280;7231;59.370;18.016;2023-05-08T10:26:49;102632.84;;;20.20;29.91
14295;BME280;7231;59.370;18.016;2023-05-08T10:29:41;102551.19;;;19.70;30.67
14295;BME280;7231;59.370;18.016;2023-05-08T10:32:11;102593.91;;;19.76;30.94
14295;BME280;7231;59.370;18.016;2023-05-08T10:34:40;102637.41;;;20.28;31.12
14295;BME280;7231;59.370;18.016;2023-05-08T10:37:10;102625.53;;;20.61;30.03
14295;BME280;7231;59.370;18.016;2023-05-08T10:39:39;102636.94;;;20.51;29.32
14295;BME280;7231;59.370;18.016;2023-05-08T10:42:08;102636.00;;;20.49;29.79
14295;BME280;7231;59.370;18.016;2023-05-08T10:44:38;102625.94;;;20.91;29.51
14295;BME280;7231;59.370;18.016;2023-05-08T10:47:12;102618.38;;;21.22;29.57
14295;BME280;7231;59.370;18.016;2023-05-08T10:49:48;102621.94;;;21.22;29.60
14295;BME280;7231;59.370;18.016;2023-05-08T10:52:25;102609.69;;;21.38;29.71
14295;BME280;7231;59.370;18.016;2023-05-08T10:55:08;102615.31;;;21.64;29.75
14295;BME280;7231;59.370;18.016;2023-05-08T10:58:04;102612.84;;;21.82;29.40
14295;BME280;7231;59.370;18.016;2023-05-08T11:01:11;102594.03;;;21.73;29.60
14295;BME280;7231;59.370;18.016;2023-05-08T11:03:43;102610.22;;;21.90;29.36
14295;BME280;7231;59.370;18.016;2023-05-08T11:06:12;102602.84;;;21.64;29.21
14295;BME280;7231;59.370;18.016;2023-05-08T11:08:50;102605.66;;;21.78;28.68
14295;BME280;7231;59.370;18.016;2023-05-08T11:11:25;102601.22;;;21.79;28.94
14295;BME280;7231;59.370;18.016;2023-05-08T11:14:11;102598.19;;;22.34;28.90
14295;BME280;7231;59.370;18.016;2023-05-08T11:17:07;102588.53;;;22.59;28.65
14295;BME280;7231;59.370;18.016;2023-05-08T11:19:36;102603.78;;;22.73;28.24
14295;BME280;7231;59.370;18.016;2023-05-08T11:22:14;102596.56;;;22.61;27.93
14295;BME280;7231;59.370;18.016;2023-05-08T11:24:55;102587.03;;;23.01;27.50
14295;BME280;7231;59.370;18.016;2023-05-08T11:27:38;102589.00;;;23.69;27.02
14295;BME280;7231;59.370;18.016;2023-05-08T11:30:20;102547.94;;;23.66;26.03
14295;BME280;7231;59.370;18.016;2023-05-08T11:32:56;102578.22;;;23.42;25.81
14295;BME280;7231;59.370;18.016;2023-05-08T11:35:45;102573.66;;;23.06;26.12
14295;BME280;7231;59.370;18.016;2023-05-08T11:38:14;102589.53;;;22.77;27.16
14295;BME280;7231;59.370;18.016;2023-05-08T11:40:47;102537.72;;;22.58;26.56
14295;BME280;7231;59.370;18.016;2023-05-08T11:43:30;102466.53;;;21.46;26.72
14295;BME280;7231;59.370;18.016;2023-05-08T11:46:01;102571.09;;;21.12;27.76
14295;BME280;7231;59.370;18.016;2023-05-08T11:48:31;102578.09;;;21.03;28.23
14295;BME280;7231;59.370;18.016;2023-05-08T11:51:00;102573.63;;;21.80;28.19
14295;BME280;7231;59.370;18.016;2023-05-08T11:53:28;102551.81;;;22.31;27.70
14295;BME280;7231;59.370;18.016;2023-05-08T11:55:57;102520.63;;;22.30;27.18
14295;BME280;7231;59.370;18.016;2023-05-08T11:58:26;102568.84;;;22.45;27.10
14295;BME280;7231;59.370;18.016;2023-05-08T12:00:54;102562.19;;;21.93;26.63
14295;BME280;7231;59.370;18.016;2023-05-08T12:03:23;102569.19;;;21.79;27.16
14295;BME280;7231;59.370;18.016;2023-05-08T12:05:55;102563.78;;;21.73;27.53
14295;BME280;7231;59.370;18.016;2023-05-08T12:08:24;102566.75;;;22.03;26.76
14295;BME280;7231;59.370;18.016;2023-05-08T12:10:53;102433.84;;;20.82;27.19
14295;BME280;7231;59.370;18.016;2023-05-08T12:13:23;102569.22;;;21.85;27.37
14295;BME280;7231;59.370;18.016;2023-05-08T12:15:53;102555.31;;;22.22;26.99
14295;BME280;7231;59.370;18.016;2023-05-08T12:18:23;102556.25;;;22.29;26.62
14295;BME280;7231;59.370;18.016;2023-05-08T12:20:55;102559.16;;;22.62;26.49
14295;BME280;7231;59.370;18.016;2023-05-08T12:23:24;102556.75;;;23.19;26.36
14295;BME280;7231;59.370;18.016;2023-05-08T12:25:53;102531.88;;;23.66;25.75
14295;BME280;7231;59.370;18.016;2023-05-08T12:28:21;102563.13;;;23.89;25.34
14295;BME280;7231;59.370;18.016;2023-05-08T12:30:49;102552.44;;;24.26;25.51
14295;BME280;7231;59.370;18.016;2023-05-08T12:33:18;102553.16;;;24.87;24.94
14295;BME280;7231;59.370;18.016;2023-05-08T12:35:46;102555.06;;;24.21;24.98
14295;BME280;7231;59.370;18.016;2023-05-08T12:38:16;102547.94;;;23.94;25.42
14295;BME280;7231;59.370;18.016;2023-05-08T12:40:45;102547.03;;;24.14;25.15
14295;BME280;7231;59.370;18.016;2023-05-08T12:43:15;102546.16;;;24.07;25.00
14295;BME280;7231;59.370;18.016;2023-05-08T12:45:43;102542.53;;;23.53;25.36
14295;BME280;7231;59.370;18.016;2023-05-08T12:48:12;102545.19;;;23.50;25.25
14295;BME280;7231;59.370;18.016;2023-05-08T12:50:42;102551.34;;;23.02;25.54
14295;BME280;7231;59.370;18.016;2023-05-08T12:53:11;102544.22;;;23.06;25.82
14295;BME280;7231;59.370;18.016;2023-05-08T12:55:50;102536.03;;;22.74;25.81
14295;BME280;7231;59.370;18.016;2023-05-08T12:58:21;102541.56;;;23.07;25.63
14295;BME280;7231;59.370;18.016;2023-05-08T13:00:51;102527.41;;;24.04;25.80
14295;BME280;7231;59.370;18.016;2023-05-08T13:03:23;102525.41;;;24.99;24.92
14295;BME280;7231;59.370;18.016;2023-05-08T13:05:53;102522.78;;;24.79;24.11
14295;BME280;7231;59.370;18.016;2023-05-08T13:08:28;102528.16;;;23.07;25.05
14295;BME280;7231;59.370;18.016;2023-05-08T13:10:58;102515.59;;;22.83;25.66
14295;BME280;7231;59.370;18.016;2023-05-08T13:13:29;102507.56;;;22.82;25.79
14295;BME280;7231;59.370;18.016;2023-05-08T13:16:01;102516.66;;;23.40;25.87